Pagrindinis puslapis
METAR-TAF:

METAR-TAF

Oro uostai :

Rygge, Norvegija

platuma: 59-23N, ilguma: 010-47E, Aukštis: 5 m

Dabartinis oras

Ataskaita buvo paskelbta 16 minutes, ne 08:50 UTC
Vėjas 3 kt iš Šiaurės/Šiaurės Rytų
Temperatūra -7°C
Drėgmė 86%
Slėgis 1010 hPa
Matomumas 10 km arba daugiau
nėra debesų žemiau 1500 m ir nėra kamuolinių lietaus debesų

METAR: ENRY 070850Z 03003KT CAVOK M07/M09 Q1010 NOSIG

Laikas: 10:06 (09:06 UTC)

Prognozė

Prognozė galioja nuo 07 metu 06 UTC su 08 metu 06 UTC
Vėjas 5 kt iš Šiaurės Rytų
Matomumas 10 km arba daugiau
Mažai debesys ne aukštis 3000 ft
Tikimybė 30%
nuo 07 metu 21 UTC su 08 metu 06 UTC
Matomumas: 3000 m
Su prošvaistėmis ne aukštis 400 ft
Rūkas lopais

TAF: ENRY 0706/0806 04005KT 9999 FEW030 PROB30 0721/0806 3000 BCFG BKN004

Orai ataskaitas ir orų prognozės (METAR, TAF).

turimą stotys yra geltonos ir raudonos taškus žemėlapyje.

Perkelti pele per norėdami pamatyti stoties vardą.

Tada spustelėkite, norėdami matyti oro stebėjimo ir prognozės.

Norėdami pakeisti žemėlapį: spustelėkite ant žalios mygtukų su juodo kryžiaus žemyn,; žalią mygtuką su brūkšneliu, jei norite nutolinti; arba žalių rodyklių gretimoms žemėlapius.


METAR-TAF: